createdAt,value
2022-10-15T00:30:30.996Z,0
2022-10-15T00:31:11.458Z,0
2022-10-15T00:31:51.957Z,0
2022-10-15T00:32:32.480Z,0
2022-10-15T00:33:12.928Z,0
2022-10-15T00:33:53.419Z,0
2022-10-15T00:34:33.908Z,0
2022-10-15T00:35:14.394Z,0
2022-10-15T00:35:54.842Z,0
2022-10-15T00:36:35.332Z,0
2022-10-15T00:37:15.839Z,0
2022-10-15T00:44:00.636Z,0
2022-10-15T00:44:41.141Z,0
2022-10-15T00:45:21.635Z,0
2022-10-15T00:46:02.143Z,0
2022-10-15T00:46:42.608Z,0
2022-10-15T00:47:23.070Z,0
2022-10-15T00:48:03.561Z,0
2022-10-15T00:48:44.075Z,0
2022-10-15T00:49:24.552Z,0
2022-10-15T00:50:05.054Z,0
2022-10-15T00:50:45.588Z,0
2022-10-15T00:58:10.745Z,0
2022-10-15T00:58:51.302Z,0
2022-10-15T00:59:31.752Z,0
2022-10-15T01:00:12.195Z,0
2022-10-15T01:00:52.740Z,0
2022-10-15T01:01:33.254Z,0
2022-10-15T01:02:13.641Z,0
2022-10-15T01:02:54.160Z,0
2022-10-15T01:03:49.088Z,0
2022-10-15T01:04:29.573Z,0
2022-10-15T01:05:50.635Z,0
2022-10-15T01:06:31.077Z,0
2022-10-15T01:07:11.586Z,0
2022-10-15T01:08:32.536Z,0
2022-10-15T01:09:13.023Z,0
2022-10-15T01:09:53.529Z,0
2022-10-15T01:10:33.996Z,0
2022-10-15T01:11:14.453Z,0
2022-10-15T01:11:54.954Z,0
2022-10-15T01:12:35.407Z,0
2022-10-15T01:20:00.615Z,0
2022-10-15T01:20:41.112Z,0
2022-10-15T01:21:21.592Z,0
2022-10-15T01:22:02.067Z,0
2022-10-15T01:22:42.651Z,0
2022-10-15T01:23:23.749Z,0
2022-10-15T01:24:03.668Z,0
2022-10-15T01:24:44.108Z,0
2022-10-15T01:25:24.585Z,0
2022-10-15T01:26:05.098Z,0
2022-10-15T01:26:45.522Z,0
2022-10-15T01:34:11.041Z,0
2022-10-15T01:34:51.533Z,0
2022-10-15T01:35:32.063Z,0
2022-10-15T01:36:12.481Z,0
2022-10-15T01:36:52.977Z,0
2022-10-15T01:37:33.428Z,0
2022-10-15T01:38:13.925Z,0
2022-10-15T01:38:54.417Z,0
2022-10-15T01:39:34.874Z,0
2022-10-15T01:40:15.397Z,0
2022-10-15T01:45:50.964Z,0
2022-10-15T01:46:31.308Z,0
2022-10-15T01:47:11.853Z,0
2022-10-15T01:47:52.319Z,0
2022-10-15T01:48:32.844Z,0
2022-10-15T01:49:13.317Z,0
2022-10-15T01:49:53.784Z,0
2022-10-15T01:50:34.215Z,0
2022-10-15T01:51:14.748Z,0
2022-10-15T01:51:55.269Z,0
2022-10-15T01:52:35.727Z,0
2022-10-15T01:59:20.697Z,0
2022-10-15T02:04:36.975Z,0
2022-10-15T02:05:17.525Z,0
2022-10-15T02:05:58.040Z,0
2022-10-15T02:06:38.623Z,0
2022-10-15T02:07:19.063Z,0
2022-10-15T02:07:59.596Z,0
2022-10-15T02:08:40.083Z,0
2022-10-15T02:09:20.609Z,0
2022-10-15T02:10:01.087Z,0
2022-10-15T02:10:41.655Z,0
2022-10-15T02:17:26.765Z,0
2022-10-15T02:18:07.299Z,0
2022-10-15T02:18:47.797Z,0
2022-10-15T02:19:28.232Z,0
2022-10-15T02:20:08.826Z,0
2022-10-15T02:20:49.227Z,0
2022-10-15T02:21:29.716Z,0
2022-10-15T02:22:10.222Z,0
2022-10-15T02:22:50.620Z,0
2022-10-15T02:23:31.093Z,0
2022-10-15T02:31:36.976Z,0
2022-10-15T02:32:17.620Z,0
2022-10-15T02:32:58.085Z,0
2022-10-15T02:33:38.570Z,0
2022-10-15T02:34:19.053Z,0
2022-10-15T02:34:59.575Z,0
2022-10-15T02:35:40.125Z,0
2022-10-15T02:36:20.589Z,0
2022-10-15T02:37:41.688Z,0
2022-10-15T02:45:06.918Z,0
2022-10-15T02:45:47.407Z,0
2022-10-15T02:46:27.990Z,0
2022-10-15T02:47:08.542Z,0
2022-10-15T02:47:49.018Z,0
2022-10-15T02:48:29.558Z,0
2022-10-15T02:49:10.024Z,0
2022-10-15T02:49:50.489Z,0
2022-10-15T02:50:30.909Z,0
2022-10-15T02:51:11.460Z,0
2022-10-15T02:51:51.921Z,0
2022-10-15T02:58:36.853Z,0
2022-10-15T02:59:17.323Z,0
2022-10-15T02:59:57.851Z,0
2022-10-15T03:00:38.320Z,0
2022-10-15T03:01:18.806Z,0
2022-10-15T03:01:59.374Z,0
2022-10-15T03:02:39.910Z,0
2022-10-15T03:03:20.407Z,0
2022-10-15T03:04:00.849Z,0
2022-10-15T03:04:41.358Z,0
2022-10-15T03:05:21.868Z,0
2022-10-15T03:12:06.826Z,0
2022-10-15T03:12:47.323Z,0
2022-10-15T03:13:27.769Z,0
2022-10-15T03:14:08.215Z,0
2022-10-15T03:14:48.815Z,0
2022-10-15T03:15:29.214Z,0
2022-10-15T03:16:09.707Z,0
2022-10-15T03:16:50.282Z,0
2022-10-15T03:17:30.812Z,0
2022-10-15T03:18:11.370Z,0
2022-10-15T03:18:51.911Z,0
2022-10-15T03:26:25.229Z,0
2022-10-15T03:27:05.703Z,0
2022-10-15T03:27:46.236Z,0
2022-10-15T03:28:26.711Z,0
2022-10-15T03:29:07.119Z,0
2022-10-15T03:29:47.594Z,0
2022-10-15T03:30:28.098Z,0
2022-10-15T03:31:08.541Z,0
2022-10-15T03:31:49.046Z,0
2022-10-15T03:32:31.957Z,0
2022-10-15T03:33:10.081Z,0
2022-10-15T03:38:35.054Z,0
2022-10-15T03:42:46.901Z,0
2022-10-15T03:43:37.371Z,0
2022-10-15T03:44:25.530Z,0
2022-10-15T03:45:13.998Z,0
2022-10-15T03:46:02.515Z,0
2022-10-15T03:46:51.723Z,0
2022-10-15T03:47:40.465Z,0
2022-10-15T03:48:28.863Z,0
2022-10-15T03:49:18.023Z,0
2022-10-15T03:50:06.954Z,0
2022-10-15T03:50:55.436Z,0
2022-10-15T03:51:44.365Z,0
2022-10-15T03:52:33.648Z,0
2022-10-15T03:53:22.449Z,0
2022-10-15T03:54:12.191Z,0
2022-10-15T03:55:49.178Z,0
2022-10-15T03:56:38.692Z,0
2022-10-15T03:57:27.114Z,0
2022-10-15T03:58:15.973Z,0
2022-10-15T04:00:48.294Z,0
2022-10-15T04:01:28.670Z,0
2022-10-15T04:02:09.171Z,0
2022-10-15T04:02:49.655Z,0
2022-10-15T04:03:30.108Z,0
2022-10-15T04:04:10.633Z,0
2022-10-15T04:04:51.282Z,0
2022-10-15T04:05:32.033Z,0
2022-10-15T04:06:12.732Z,0
2022-10-15T04:12:17.947Z,0
2022-10-15T04:12:58.333Z,0
2022-10-15T04:13:39.473Z,0
2022-10-15T04:14:19.958Z,0
2022-10-15T04:15:00.474Z,0
2022-10-15T04:15:41.096Z,0
2022-10-15T04:16:21.491Z,0
2022-10-15T04:17:02.710Z,0
2022-10-15T04:17:43.011Z,0
2022-10-15T04:24:20.414Z,0
2022-10-15T04:25:00.964Z,0
2022-10-15T04:25:41.409Z,0
2022-10-15T04:26:21.896Z,0
2022-10-15T04:27:02.390Z,0
2022-10-15T04:27:43.161Z,0
2022-10-15T04:28:23.374Z,0
2022-10-15T04:29:04.150Z,0
2022-10-15T04:29:45.024Z,0
2022-10-15T04:30:26.606Z,0
2022-10-15T04:34:05.098Z,0
2022-10-15T04:34:45.606Z,0
2022-10-15T04:35:26.121Z,0
2022-10-15T04:36:06.627Z,0
2022-10-15T04:37:27.646Z,0
2022-10-15T04:38:08.144Z,0
2022-10-15T04:38:48.570Z,0
2022-10-15T04:39:29.167Z,0
2022-10-15T04:40:09.872Z,0
2022-10-15T04:46:54.950Z,0
2022-10-15T04:47:35.459Z,0
2022-10-15T04:48:16.122Z,0
2022-10-15T04:48:56.742Z,0
2022-10-15T04:49:37.320Z,0
2022-10-15T04:50:17.814Z,0
2022-10-15T04:50:58.271Z,0
2022-10-15T04:55:21.125Z,0
2022-10-15T04:56:00.858Z,0
2022-10-15T04:56:41.339Z,0
2022-10-15T04:57:22.590Z,0
2022-10-15T05:02:05.835Z,0
2022-10-15T05:02:46.216Z,0
2022-10-15T05:03:26.951Z,0
2022-10-15T05:04:07.167Z,0
2022-10-15T05:04:47.631Z,0
2022-10-15T05:05:28.153Z,0
2022-10-15T05:06:08.780Z,0
2022-10-15T05:06:49.339Z,0
2022-10-15T05:07:29.853Z,0
2022-10-15T05:08:10.257Z,0
2022-10-15T05:08:51.048Z,0
2022-10-15T05:14:55.977Z,0
2022-10-15T05:15:36.469Z,0
2022-10-15T05:16:17.009Z,0
2022-10-15T05:16:57.477Z,0
2022-10-15T05:17:37.935Z,0
2022-10-15T05:18:18.549Z,0
2022-10-15T05:18:59.028Z,0
2022-10-15T05:19:40.113Z,0
2022-10-15T05:20:20.760Z,0
2022-10-15T05:21:01.057Z,0
2022-10-15T05:25:48.220Z,0
2022-10-15T05:26:26.664Z,0
2022-10-15T05:27:07.142Z,0
2022-10-15T05:27:47.614Z,0
2022-10-15T05:28:28.195Z,0
2022-10-15T05:29:49.280Z,4
2022-10-15T05:30:29.727Z,4
2022-10-15T05:31:11.804Z,0
2022-10-15T05:31:50.765Z,4
2022-10-15T05:37:31.727Z,12
2022-10-15T05:38:12.168Z,12
2022-10-15T05:41:31.451Z,20
2022-10-15T05:42:11.411Z,20
2022-10-15T05:42:51.897Z,24
2022-10-15T05:43:34.042Z,28
2022-10-15T05:44:13.230Z,28
2022-10-15T05:44:53.734Z,32
2022-10-15T05:45:34.290Z,32
2022-10-15T05:46:14.777Z,36
2022-10-15T05:46:55.276Z,40
2022-10-15T05:50:10.946Z,56
2022-10-15T05:50:49.575Z,60
2022-10-15T05:51:30.139Z,64
2022-10-15T05:52:10.526Z,64
2022-10-15T05:52:51.036Z,72
2022-10-15T06:32:02.181Z,560
2022-10-15T06:32:42.587Z,532
2022-10-15T06:33:23.165Z,524
2022-10-15T06:34:04.346Z,520
2022-10-15T06:34:44.801Z,508
2022-10-15T06:35:25.266Z,556
2022-10-15T06:39:26.702Z,824
2022-10-15T06:40:07.348Z,752
2022-10-15T06:40:47.798Z,740
2022-10-15T06:41:28.261Z,712
2022-10-15T06:42:08.693Z,656
2022-10-15T06:42:49.172Z,624
2022-10-15T06:43:31.028Z,608
2022-10-15T06:44:10.264Z,588
2022-10-15T06:44:50.690Z,588
2022-10-15T06:45:31.147Z,568
2022-10-15T06:52:16.214Z,592
2022-10-15T06:52:56.706Z,580
2022-10-15T06:53:37.248Z,592
2022-10-15T06:54:17.657Z,596
2022-10-15T06:54:58.113Z,580
2022-10-15T06:55:38.621Z,564
2022-10-15T06:56:19.195Z,556
2022-10-15T06:56:59.729Z,532
2022-10-15T06:57:40.105Z,516
2022-10-15T06:59:01.053Z,480
2022-10-15T07:06:26.498Z,436
2022-10-15T07:07:07.070Z,448
2022-10-15T07:07:47.586Z,460
2022-10-15T07:08:27.987Z,472
2022-10-15T07:09:08.498Z,468
2022-10-15T07:09:48.993Z,468
2022-10-15T07:10:29.495Z,452
2022-10-15T07:18:58.966Z,516
2022-10-15T07:19:39.419Z,532
2022-10-15T07:20:21.619Z,556
2022-10-15T07:21:00.637Z,612
2022-10-15T07:21:41.074Z,656
2022-10-15T07:22:21.712Z,700
2022-10-15T07:23:02.095Z,728
2022-10-15T07:23:42.536Z,748
2022-10-15T07:24:23.048Z,816
2022-10-15T07:25:03.697Z,912
2022-10-15T07:31:08.445Z,1188
2022-10-15T07:31:48.999Z,1152
2022-10-15T07:32:29.427Z,1120
2022-10-15T07:33:10.017Z,1096
2022-10-15T07:33:50.528Z,1088
2022-10-15T07:34:31.219Z,1104
2022-10-15T07:35:11.778Z,1112
2022-10-15T07:35:52.215Z,1120
2022-10-15T07:36:32.994Z,1128
2022-10-15T07:37:13.478Z,1116
2022-10-15T07:46:02.021Z,876
2022-10-15T07:46:42.535Z,868
2022-10-15T07:47:23.349Z,840
2022-10-15T07:48:03.530Z,788
2022-10-15T07:48:44.024Z,772
2022-10-15T07:49:24.553Z,740
2022-10-15T07:50:05.028Z,716
2022-10-15T07:50:45.597Z,692
2022-10-15T07:52:06.568Z,640
2022-10-15T07:52:47.008Z,636
2022-10-15T07:59:49.144Z,536
2022-10-15T08:00:29.534Z,540
2022-10-15T08:01:10.004Z,552
2022-10-15T08:01:50.720Z,564
2022-10-15T08:02:30.980Z,588
2022-10-15T08:03:11.541Z,604
2022-10-15T08:03:51.977Z,632
2022-10-15T08:04:32.525Z,668
2022-10-15T08:05:13.020Z,676
2022-10-15T08:05:53.552Z,700
2022-10-15T08:12:38.733Z,1008
2022-10-15T08:13:19.215Z,1068
2022-10-15T08:14:00.408Z,1132
2022-10-15T08:14:40.811Z,1156
2022-10-15T08:15:21.334Z,1132
2022-10-15T08:16:01.918Z,1120
2022-10-15T08:16:42.527Z,1072
2022-10-15T08:17:23.049Z,996
2022-10-15T08:18:03.544Z,948
2022-10-15T08:25:06.033Z,648
2022-10-15T08:25:46.697Z,680
2022-10-15T08:26:27.099Z,748
2022-10-15T08:27:07.585Z,812
2022-10-15T08:27:48.053Z,860
2022-10-15T08:28:28.604Z,884
2022-10-15T08:29:09.067Z,912
2022-10-15T08:29:49.620Z,912
2022-10-15T08:30:30.047Z,896
2022-10-15T08:31:10.493Z,868
2022-10-15T08:31:51.012Z,864
2022-10-15T08:37:15.879Z,1144
2022-10-15T08:37:56.338Z,1196
2022-10-15T08:41:10.583Z,1172
2022-10-15T08:41:51.025Z,1044
2022-10-15T08:42:31.495Z,984
2022-10-15T08:43:12.080Z,952
2022-10-15T08:43:52.477Z,904
2022-10-15T08:44:32.948Z,900
2022-10-15T08:45:13.468Z,916
2022-10-15T08:45:53.990Z,1004
2022-10-15T08:46:34.404Z,1124
2022-10-15T08:47:14.987Z,1200
2022-10-15T08:53:36.828Z,1144
2022-10-15T08:54:17.442Z,1108
2022-10-15T08:54:57.896Z,1080
2022-10-15T08:55:38.299Z,1052
2022-10-15T08:56:18.842Z,1008
2022-10-15T08:56:59.405Z,980
2022-10-15T08:57:39.872Z,940
2022-10-15T08:58:20.411Z,888
2022-10-15T08:59:01.055Z,828
2022-10-15T08:59:41.406Z,780
2022-10-15T09:07:06.960Z,1248
2022-10-15T09:07:49.657Z,1252
2022-10-15T09:08:28.105Z,1228
2022-10-15T09:09:08.533Z,1204
2022-10-15T09:09:49.044Z,1172
2022-10-15T09:10:29.473Z,1116
2022-10-15T09:11:09.964Z,1168
2022-10-15T09:14:46.653Z,928
2022-10-15T09:15:28.148Z,1052
2022-10-15T09:16:09.802Z,1148
2022-10-15T09:16:50.836Z,1224
2022-10-15T09:18:54.386Z,1256
2022-10-15T09:19:35.474Z,1280
2022-10-15T09:20:17.030Z,1284
2022-10-15T09:20:58.183Z,1288
2022-10-15T09:21:39.196Z,1252
2022-10-15T09:25:04.976Z,1312
2022-10-15T09:25:45.954Z,1428
2022-10-15T09:26:27.125Z,1476
2022-10-15T09:27:08.105Z,1528
2022-10-15T09:27:49.078Z,1560
2022-10-15T09:31:14.290Z,1228
2022-10-15T09:36:31.206Z,1748
2022-10-15T09:37:11.606Z,1820
2022-10-15T09:37:52.116Z,1788
2022-10-15T09:38:32.657Z,1804
2022-10-15T09:39:13.146Z,1764
2022-10-15T09:39:54.605Z,1580
2022-10-15T09:40:35.068Z,1256
2022-10-15T09:41:15.541Z,1112
2022-10-15T09:41:56.069Z,996
2022-10-15T09:48:01.178Z,856
2022-10-15T09:48:41.642Z,888
2022-10-15T09:49:22.200Z,892
2022-10-15T09:50:02.762Z,872
2022-10-15T09:50:43.186Z,840
2022-10-15T09:51:23.805Z,832
2022-10-15T09:52:04.309Z,852
2022-10-15T09:52:44.764Z,888
2022-10-15T09:53:26.025Z,1028
2022-10-15T09:54:05.843Z,1100
2022-10-15T10:00:50.981Z,1272
2022-10-15T10:01:31.530Z,1304
2022-10-15T10:02:12.066Z,1336
2022-10-15T10:02:52.522Z,1380
2022-10-15T10:03:33.025Z,1416
2022-10-15T10:04:13.495Z,1404
2022-10-15T10:04:53.981Z,1488
2022-10-15T10:05:34.498Z,1416
2022-10-15T10:06:15.025Z,1448
2022-10-15T10:06:55.535Z,1496
2022-10-15T10:13:40.847Z,1896
2022-10-15T10:14:21.343Z,1556
2022-10-15T10:15:01.846Z,1500
2022-10-15T10:15:42.428Z,1600
2022-10-15T10:16:22.909Z,1376
2022-10-15T10:17:03.388Z,1228
2022-10-15T10:17:44.775Z,1128
2022-10-15T10:18:25.223Z,1052
2022-10-15T10:19:05.843Z,1056
2022-10-15T10:25:51.194Z,1216
2022-10-15T10:26:31.737Z,1308
2022-10-15T10:27:12.160Z,1304
2022-10-15T10:27:52.740Z,1260
2022-10-15T10:28:33.197Z,1168
2022-10-15T10:29:22.458Z,1132
2022-10-15T10:29:54.199Z,1184
2022-10-15T10:30:34.725Z,1188
2022-10-15T10:31:15.162Z,1176
2022-10-15T10:31:55.694Z,1184
2022-10-15T10:38:40.857Z,1372
2022-10-15T10:39:21.364Z,1388
2022-10-15T10:40:01.893Z,1472
2022-10-15T10:40:42.423Z,1556
2022-10-15T10:41:22.908Z,1576
2022-10-15T10:42:03.423Z,1580
2022-10-15T10:42:44.563Z,1540
2022-10-15T10:43:25.082Z,1472
2022-10-15T10:44:05.568Z,1464
2022-10-15T10:44:46.135Z,1560
2022-10-15T10:50:51.004Z,1556
2022-10-15T10:51:31.527Z,1408
2022-10-15T10:52:12.042Z,1460
2022-10-15T10:52:52.543Z,1540
2022-10-15T10:53:33.135Z,1360
2022-10-15T10:54:14.490Z,1372
2022-10-15T10:54:55.074Z,1296
2022-10-15T10:55:35.538Z,1260
2022-10-15T10:56:16.102Z,1264
2022-10-15T11:03:01.042Z,1412
2022-10-15T11:03:41.538Z,1296
2022-10-15T11:04:22.098Z,1228
2022-10-15T11:05:02.544Z,1176
2022-10-15T11:05:43.079Z,1152
2022-10-15T11:06:23.672Z,1172
2022-10-15T11:07:04.194Z,1016
2022-10-15T11:07:44.714Z,964
2022-10-15T11:08:25.318Z,984
2022-10-15T11:09:05.881Z,1064
2022-10-15T11:15:11.039Z,1376
2022-10-15T11:15:51.586Z,1488
2022-10-15T11:16:32.049Z,1388
2022-10-15T11:17:12.587Z,1248
2022-10-15T11:17:53.077Z,1144
2022-10-15T11:18:33.514Z,1008
2022-10-15T11:19:18.947Z,944
2022-10-15T11:20:12.852Z,920
2022-10-15T11:20:48.543Z,904
2022-10-15T11:21:15.586Z,912
2022-10-15T11:21:56.081Z,888
2022-10-15T11:28:41.195Z,1260
2022-10-15T11:29:21.657Z,1096
2022-10-15T11:30:02.091Z,1008
2022-10-15T11:30:42.623Z,972
2022-10-15T11:32:14.467Z,912
2022-10-15T11:33:02.184Z,892
2022-10-15T11:33:24.661Z,848
2022-10-15T11:34:05.212Z,788
2022-10-15T11:34:45.861Z,808
2022-10-15T11:40:50.774Z,988
2022-10-15T11:41:31.216Z,968
2022-10-15T11:42:11.739Z,936
2022-10-15T11:42:52.232Z,992
2022-10-15T11:43:32.706Z,1024
2022-10-15T11:44:13.208Z,1048
2022-10-15T11:44:53.698Z,1072
2022-10-15T11:45:34.157Z,1220
2022-10-15T11:46:14.627Z,1292
2022-10-15T11:46:55.101Z,1236
2022-10-15T11:47:35.681Z,1188
2022-10-15T11:48:16.832Z,1136
2022-10-15T11:53:41.032Z,1160
2022-10-15T11:54:21.609Z,1240
2022-10-15T12:32:21.699Z,992
2022-10-15T12:33:02.185Z,984
2022-10-15T12:33:42.675Z,992
2022-10-15T12:34:23.178Z,1000
2022-10-15T12:35:03.694Z,956
2022-10-15T12:35:44.207Z,1048
2022-10-15T12:36:24.713Z,1144
2022-10-15T12:37:05.830Z,1240
2022-10-15T12:37:46.349Z,1276
2022-10-15T12:42:31.476Z,1380
2022-10-15T12:43:12.021Z,1388
2022-10-15T12:43:52.801Z,1364
2022-10-15T12:44:33.320Z,1376
2022-10-15T12:45:13.843Z,1392
2022-10-15T12:45:54.725Z,1496
2022-10-15T12:46:37.765Z,1452
2022-10-15T12:50:02.812Z,1360
2022-10-15T12:50:43.297Z,1376
2022-10-15T12:51:24.685Z,1408
2022-10-15T12:52:05.076Z,1476
2022-10-15T12:52:46.295Z,1424
2022-10-15T12:53:26.915Z,1360
2022-10-15T12:56:51.890Z,1440
2022-10-15T12:57:32.486Z,1440
2022-10-15T12:58:13.359Z,1364
2022-10-15T12:58:53.838Z,1360
2022-10-15T12:59:34.839Z,1372
2022-10-15T13:00:15.818Z,1368
2022-10-15T13:00:56.191Z,1348
2022-10-15T13:01:36.803Z,1340
2022-10-15T13:07:01.533Z,1216
2022-10-15T13:07:42.073Z,1216
2022-10-15T13:08:22.512Z,1196
2022-10-15T13:09:03.139Z,1216
2022-10-15T13:09:43.526Z,1156
2022-10-15T13:10:24.084Z,1156
2022-10-15T13:11:04.583Z,1160
2022-10-15T13:11:45.195Z,1200
2022-10-15T13:12:25.878Z,1220
2022-10-15T13:13:06.041Z,1188
2022-10-15T13:13:46.560Z,1164
2022-10-15T13:20:31.749Z,968
2022-10-15T13:21:13.647Z,1040
2022-10-15T13:21:52.686Z,1088
2022-10-15T13:22:33.295Z,1068
2022-10-15T13:23:19.004Z,1032
2022-10-15T13:23:54.655Z,1012
2022-10-15T13:24:35.431Z,988
2022-10-15T13:25:16.285Z,928
2022-10-15T13:25:56.473Z,912
2022-10-15T13:30:57.219Z,880
2022-10-15T13:31:37.544Z,872
2022-10-15T13:32:18.103Z,820
2022-10-15T13:32:58.538Z,764
2022-10-15T13:33:39.638Z,680
2022-10-15T13:34:20.150Z,620
2022-10-15T13:35:00.589Z,600
2022-10-15T13:35:41.074Z,580
2022-10-15T13:36:21.605Z,540
2022-10-15T13:37:02.067Z,492
2022-10-15T13:43:47.176Z,684
2022-10-15T13:44:27.639Z,748
2022-10-15T13:46:26.958Z,684
2022-10-15T13:47:07.922Z,676
2022-10-15T13:47:49.023Z,704
2022-10-15T13:48:30.702Z,756
2022-10-15T13:49:11.883Z,796
2022-10-15T13:51:55.731Z,832
2022-10-15T13:52:37.073Z,868
2022-10-15T13:53:18.283Z,892
2022-10-15T13:54:00.105Z,904
2022-10-15T13:54:41.488Z,904
2022-10-15T13:56:47.857Z,912
2022-10-15T13:57:26.924Z,908
2022-10-15T13:58:08.848Z,908
2022-10-15T13:58:51.153Z,936
2022-10-15T13:59:31.242Z,960
2022-10-15T14:03:13.864Z,1064
2022-10-15T14:03:54.550Z,1072
2022-10-15T14:04:35.572Z,1084
2022-10-15T14:05:16.672Z,1092
2022-10-15T14:05:57.765Z,1108
2022-10-15T14:08:05.763Z,1144
2022-10-15T14:08:50.882Z,1168
2022-10-15T14:11:40.912Z,1080
2022-10-15T14:12:22.058Z,1044
2022-10-15T14:13:03.187Z,1028
2022-10-15T14:13:44.381Z,1028
2022-10-15T14:14:25.611Z,1024
2022-10-15T14:17:50.462Z,968
2022-10-15T14:18:31.491Z,984
2022-10-15T14:19:12.755Z,976
2022-10-15T14:20:08.219Z,960
2022-10-15T14:20:34.702Z,948
2022-10-15T14:21:15.648Z,944
2022-10-15T14:24:40.750Z,932
2022-10-15T14:25:21.728Z,936
2022-10-15T14:26:02.595Z,928
2022-10-15T14:28:01.328Z,880
2022-10-15T14:28:41.606Z,872
2022-10-15T14:29:22.022Z,868
2022-10-15T14:30:02.559Z,844
2022-10-15T14:30:43.008Z,832
2022-10-15T14:31:23.483Z,828
2022-10-15T14:32:03.964Z,836
2022-10-15T14:32:44.479Z,840
2022-10-15T14:33:24.945Z,828
2022-10-15T14:34:05.452Z,812
2022-10-15T14:34:45.835Z,788
2022-10-15T14:42:11.157Z,632
2022-10-15T14:42:51.632Z,628
2022-10-15T14:43:32.173Z,616
2022-10-15T14:44:12.655Z,620
2022-10-15T14:44:53.149Z,564
2022-10-15T14:45:33.630Z,580
2022-10-15T14:46:14.146Z,604
2022-10-15T14:46:54.624Z,612
2022-10-15T14:47:35.084Z,596
2022-10-15T14:48:15.548Z,568
2022-10-15T14:48:56.089Z,504
2022-10-15T14:55:40.894Z,236
2022-10-15T14:56:21.394Z,212
2022-10-15T14:57:01.856Z,192
2022-10-15T14:57:42.315Z,168
2022-10-15T14:58:22.807Z,144
2022-10-15T14:59:03.296Z,128
2022-10-15T14:59:43.816Z,104
2022-10-15T15:00:24.364Z,100
2022-10-15T15:07:11.091Z,180
2022-10-15T15:07:51.603Z,196
2022-10-15T15:08:32.170Z,204
2022-10-15T15:09:12.657Z,212
2022-10-15T15:09:53.123Z,224
2022-10-15T15:10:33.601Z,244
2022-10-15T15:11:14.134Z,252
2022-10-15T15:11:54.621Z,248
2022-10-15T15:12:35.081Z,248
2022-10-15T15:13:15.606Z,276
2022-10-15T15:13:56.057Z,276
2022-10-15T15:20:40.875Z,100
2022-10-15T15:21:21.470Z,88
2022-10-15T15:22:01.852Z,80
2022-10-15T15:22:42.340Z,72
2022-10-15T15:23:22.800Z,68
2022-10-15T15:24:03.294Z,64
2022-10-15T15:24:43.775Z,60
2022-10-15T15:25:24.275Z,60
2022-10-15T15:26:04.730Z,60
2022-10-15T15:26:45.196Z,60
2022-10-15T15:27:25.688Z,60
2022-10-15T15:34:50.884Z,100
2022-10-15T15:35:32.019Z,92
2022-10-15T15:36:12.469Z,84
2022-10-15T15:36:52.935Z,80
2022-10-15T15:37:33.411Z,80
2022-10-15T15:38:13.884Z,76
2022-10-15T15:38:54.405Z,72
2022-10-15T15:39:34.848Z,68
2022-10-15T15:40:15.367Z,64
2022-10-15T15:40:55.873Z,64
2022-10-15T15:48:21.023Z,116
2022-10-15T15:49:01.543Z,148
2022-10-15T15:49:41.981Z,184
2022-10-15T15:50:22.480Z,216
2022-10-15T15:51:02.961Z,232
2022-10-15T15:51:43.433Z,236
2022-10-15T15:52:24.233Z,240
2022-10-15T15:53:04.394Z,244
2022-10-15T15:53:44.875Z,248
2022-10-15T15:54:25.407Z,248
2022-10-15T15:55:05.877Z,252
2022-10-15T16:02:31.152Z,144
2022-10-15T16:03:11.626Z,124
2022-10-15T16:03:52.112Z,100
2022-10-15T16:04:32.635Z,88
2022-10-15T16:05:13.119Z,80
2022-10-15T16:05:53.569Z,80
2022-10-15T16:06:34.087Z,76
2022-10-15T16:07:15.318Z,76
2022-10-15T16:07:55.027Z,72
2022-10-15T16:09:16.037Z,72
2022-10-15T16:14:40.790Z,100
2022-10-15T16:15:21.288Z,104
2022-10-15T16:16:01.867Z,108
2022-10-15T16:16:42.351Z,108
2022-10-15T16:17:23.044Z,104
2022-10-15T16:18:03.320Z,100
2022-10-15T16:18:43.809Z,100
2022-10-15T16:19:24.306Z,100
2022-10-15T16:20:04.799Z,100
2022-10-15T16:20:48.464Z,100
2022-10-15T16:21:25.767Z,96
2022-10-15T16:28:51.207Z,52
2022-10-15T16:29:31.653Z,48
2022-10-15T16:30:12.161Z,44
2022-10-15T16:30:52.669Z,44
2022-10-15T16:31:33.082Z,44
2022-10-15T16:32:13.577Z,40
2022-10-15T16:32:54.180Z,36
2022-10-15T16:33:34.558Z,36
2022-10-15T16:34:15.058Z,32
2022-10-15T16:34:55.510Z,32
2022-10-15T16:35:35.998Z,32
2022-10-15T16:43:01.163Z,12
2022-10-15T16:43:41.609Z,12
2022-10-15T16:44:22.055Z,8
2022-10-15T16:45:02.512Z,12
2022-10-15T16:45:43.024Z,8
2022-10-15T16:46:23.519Z,8
2022-10-15T16:47:03.993Z,8
2022-10-15T16:47:44.472Z,8
2022-10-15T16:49:05.391Z,12
2022-10-15T16:49:45.901Z,8
2022-10-15T16:57:11.240Z,0
2022-10-15T16:57:51.736Z,0
2022-10-15T16:58:32.236Z,0
2022-10-15T16:59:12.710Z,0
2022-10-15T16:59:53.185Z,0
2022-10-15T17:00:33.696Z,0
2022-10-15T17:01:14.188Z,0
2022-10-15T17:01:54.716Z,0
2022-10-15T17:02:35.113Z,0
2022-10-15T17:03:15.592Z,0
2022-10-15T17:03:56.098Z,0
2022-10-15T17:10:01.281Z,0
2022-10-15T17:10:41.652Z,0
2022-10-15T17:11:22.153Z,0
2022-10-15T17:12:02.607Z,0
2022-10-15T17:12:43.090Z,0
2022-10-15T17:13:23.589Z,0
2022-10-15T17:14:04.076Z,0
2022-10-15T17:14:44.527Z,0
2022-10-15T17:15:25.025Z,0
2022-10-15T17:16:05.511Z,0
2022-10-15T17:16:46.049Z,0
2022-10-15T17:23:30.819Z,0
2022-10-15T17:24:11.267Z,0
2022-10-15T17:24:51.750Z,0
2022-10-15T17:25:32.224Z,0
2022-10-15T17:26:12.706Z,0
2022-10-15T17:26:53.192Z,0
2022-10-15T17:27:33.636Z,0
2022-10-15T17:28:14.987Z,0
2022-10-15T17:28:54.608Z,0
2022-10-15T17:29:35.072Z,0
2022-10-15T17:30:15.501Z,0
2022-10-15T17:30:56.008Z,0
2022-10-15T17:37:40.820Z,0
2022-10-15T17:38:22.529Z,0
2022-10-15T17:39:01.812Z,0
2022-10-15T17:39:42.240Z,0
2022-10-15T17:40:22.844Z,0
2022-10-15T17:41:03.156Z,0
2022-10-15T17:41:43.649Z,0
2022-10-15T17:42:24.315Z,0
2022-10-15T17:43:04.640Z,0
2022-10-15T17:43:45.146Z,0
2022-10-15T17:44:25.668Z,0
2022-10-15T17:45:06.131Z,0
2022-10-15T17:51:50.937Z,0
2022-10-15T17:52:31.374Z,0
2022-10-15T17:53:11.863Z,0
2022-10-15T17:53:52.308Z,0
2022-10-15T17:54:32.805Z,0
2022-10-15T18:33:58.172Z,0
2022-10-15T18:34:38.575Z,0
2022-10-15T18:35:19.207Z,0
2022-10-15T18:35:59.855Z,0
2022-10-15T18:36:40.390Z,0
2022-10-15T18:37:20.856Z,0
2022-10-15T18:38:01.385Z,0
2022-10-15T18:38:41.897Z,0
2022-10-15T18:39:22.390Z,0
2022-10-15T18:46:48.050Z,0
2022-10-15T18:47:28.452Z,0
2022-10-15T18:48:08.971Z,0
2022-10-15T18:48:49.422Z,0
2022-10-15T18:49:29.923Z,0
2022-10-15T18:50:10.431Z,0
2022-10-15T18:50:50.933Z,0
2022-10-15T18:51:31.411Z,0
2022-10-15T18:52:21.321Z,0
2022-10-15T18:52:52.430Z,0
2022-10-15T18:53:32.951Z,0
2022-10-15T19:00:17.942Z,0
2022-10-15T19:00:58.443Z,0
2022-10-15T19:01:39.084Z,0
2022-10-15T19:02:19.584Z,0
2022-10-15T19:03:00.037Z,0
2022-10-15T19:03:40.488Z,0
2022-10-15T19:04:21.017Z,0
2022-10-15T19:05:01.532Z,0
2022-10-15T19:05:42.008Z,0
2022-10-15T19:06:22.477Z,0
2022-10-15T19:07:02.941Z,0
2022-10-15T19:13:48.101Z,0
2022-10-15T19:14:28.601Z,0
2022-10-15T19:15:09.054Z,0
2022-10-15T19:15:50.439Z,0
2022-10-15T19:16:31.011Z,0
2022-10-15T19:17:11.507Z,0
2022-10-15T19:17:52.039Z,0
2022-10-15T19:18:32.442Z,0
2022-10-15T19:19:13.009Z,0
2022-10-15T19:25:17.689Z,0
2022-10-15T19:25:58.116Z,0
2022-10-15T19:26:38.652Z,0
2022-10-15T19:27:19.142Z,0
2022-10-15T19:27:59.638Z,0
2022-10-15T19:28:40.251Z,0
2022-10-15T19:29:20.741Z,0
2022-10-15T19:30:01.295Z,0
2022-10-15T19:30:41.760Z,0
2022-10-15T19:31:22.311Z,0
2022-10-15T19:32:02.811Z,0
2022-10-15T19:38:47.865Z,0
2022-10-15T19:39:28.551Z,0
2022-10-15T19:40:09.085Z,0
2022-10-15T19:40:49.652Z,0
2022-10-15T19:41:30.089Z,0
2022-10-15T19:42:10.571Z,0
2022-10-15T19:42:51.118Z,0
2022-10-15T19:43:31.770Z,0
2022-10-15T19:44:12.187Z,0
2022-10-15T19:44:52.719Z,0
2022-10-15T19:51:37.955Z,0
2022-10-15T19:52:18.515Z,0
2022-10-15T19:52:58.985Z,0
2022-10-15T19:53:39.455Z,0
2022-10-15T19:54:20.044Z,0
2022-10-15T19:55:00.458Z,0
2022-10-15T19:58:14.352Z,0
2022-10-15T19:58:54.884Z,0
2022-10-15T19:59:35.444Z,0
2022-10-15T20:00:15.951Z,0
2022-10-15T20:00:56.361Z,0
2022-10-15T20:01:36.914Z,0
2022-10-15T20:02:17.382Z,0